createdAt,value
2023-03-22T00:00:41.839Z,28.60
2023-03-22T00:03:12.099Z,28.60
2023-03-22T00:05:39.826Z,28.60
2023-03-22T00:08:07.562Z,28.60
2023-03-22T00:10:38.231Z,28.60
2023-03-22T00:13:05.972Z,28.70
2023-03-22T00:15:33.852Z,28.70
2023-03-22T00:18:01.760Z,28.70
2023-03-22T00:20:29.326Z,28.70
2023-03-22T00:22:57.204Z,28.80
2023-03-22T00:25:27.203Z,28.80
2023-03-22T00:27:54.846Z,28.90
2023-03-22T00:30:22.628Z,28.90
2023-03-22T00:32:52.642Z,28.90
2023-03-22T00:35:20.263Z,29.00
2023-03-22T00:37:48.102Z,29.00
2023-03-22T00:40:18.413Z,29.10
2023-03-22T00:42:45.989Z,29.10
2023-03-22T00:45:13.611Z,29.10
2023-03-22T00:47:43.625Z,29.20
2023-03-22T00:50:11.400Z,29.20
2023-03-22T00:52:39.281Z,29.30
2023-03-22T00:55:09.130Z,29.30
2023-03-22T00:57:36.620Z,29.40
2023-03-22T01:00:06.357Z,29.50
2023-03-22T01:02:37.664Z,29.50
2023-03-22T01:05:05.473Z,29.60
2023-03-22T01:07:33.164Z,29.60
2023-03-22T01:10:02.919Z,29.70
2023-03-22T01:12:30.651Z,29.70
2023-03-22T01:14:58.225Z,29.80
2023-03-22T01:17:28.171Z,29.80
2023-03-22T01:19:55.907Z,29.80
2023-03-22T01:22:23.460Z,29.90
2023-03-22T01:24:53.216Z,29.90
2023-03-22T01:27:20.989Z,30.00
2023-03-22T01:29:48.680Z,30.10
2023-03-22T01:32:16.358Z,30.20
2023-03-22T01:34:44.139Z,30.20
2023-03-22T01:37:11.803Z,30.20
2023-03-22T01:39:39.488Z,30.30
2023-03-22T01:42:07.142Z,30.40
2023-03-22T01:44:36.863Z,30.40
2023-03-22T01:47:06.594Z,30.50
2023-03-22T01:49:34.455Z,30.50
2023-03-22T01:52:01.972Z,30.70
2023-03-22T01:54:31.744Z,30.80
2023-03-22T01:56:59.496Z,30.80
2023-03-22T01:59:27.265Z,30.80
2023-03-22T02:01:57.048Z,30.90
2023-03-22T02:04:24.662Z,30.90
2023-03-22T02:06:52.206Z,31.00
2023-03-22T02:09:20.352Z,31.10
2023-03-22T02:11:48.233Z,31.10
2023-03-22T02:14:16.164Z,31.20
2023-03-22T02:16:45.980Z,31.30
2023-03-22T02:19:14.128Z,31.30
2023-03-22T02:21:42.368Z,31.40
2023-03-22T02:24:12.254Z,31.50
2023-03-22T02:26:40.170Z,31.50
2023-03-22T02:29:08.061Z,31.70
2023-03-22T02:31:38.396Z,31.70
2023-03-22T02:34:08.247Z,31.70
2023-03-22T02:36:35.823Z,31.80
2023-03-22T02:39:03.480Z,32.00
2023-03-22T02:41:32.690Z,32.00
2023-03-22T02:44:00.598Z,32.10
2023-03-22T02:46:30.498Z,32.00
2023-03-22T02:48:59.100Z,32.10
2023-03-22T02:51:26.707Z,32.30
2023-03-22T02:53:54.471Z,32.50
2023-03-22T02:56:22.631Z,32.40
2023-03-22T02:58:58.502Z,32.60
2023-03-22T03:01:34.893Z,32.60
2023-03-22T03:04:10.920Z,32.60
2023-03-22T03:06:38.583Z,32.70
2023-03-22T03:09:06.171Z,32.80
2023-03-22T03:11:33.966Z,32.80
2023-03-22T03:14:01.836Z,32.80
2023-03-22T03:16:30.070Z,32.90
2023-03-22T03:18:58.673Z,32.90
2023-03-22T03:21:26.296Z,33.00
2023-03-22T03:23:53.902Z,33.10
2023-03-22T03:26:21.916Z,33.20
2023-03-22T03:28:49.503Z,33.40
2023-03-22T03:31:17.085Z,33.40
2023-03-22T03:33:47.109Z,33.40
2023-03-22T03:36:14.963Z,33.30
2023-03-22T03:38:42.611Z,33.40
2023-03-22T03:41:13.347Z,33.60
2023-03-22T03:43:41.112Z,33.70
2023-03-22T03:46:08.764Z,33.80
2023-03-22T03:48:38.822Z,33.90
2023-03-22T03:51:06.614Z,34.00
2023-03-22T03:53:34.207Z,34.10
2023-03-22T03:56:04.831Z,34.20
2023-03-22T03:58:33.210Z,34.30
2023-03-22T04:01:00.839Z,34.30
2023-03-22T04:03:30.400Z,34.50
2023-03-22T04:05:58.014Z,34.20
2023-03-22T04:08:25.637Z,34.10
2023-03-22T04:10:53.599Z,34.10
2023-03-22T04:13:21.279Z,34.20
2023-03-22T04:15:48.909Z,34.30
2023-03-22T04:18:18.437Z,34.60
2023-03-22T04:20:46.108Z,34.60
2023-03-22T04:23:13.705Z,34.60
2023-03-22T04:25:43.714Z,34.50
2023-03-22T04:28:11.447Z,34.70
2023-03-22T04:30:39.397Z,34.80
2023-03-22T04:33:09.481Z,35.10
2023-03-22T04:35:37.266Z,35.10
2023-03-22T04:38:04.885Z,34.70
2023-03-22T04:40:35.801Z,34.90
2023-03-22T04:43:03.711Z,35.00
2023-03-22T04:45:31.659Z,35.00
2023-03-22T04:48:02.342Z,35.00
2023-03-22T04:50:30.241Z,35.20
2023-03-22T04:52:57.823Z,35.60
2023-03-22T04:55:28.144Z,35.70
2023-03-22T04:57:55.706Z,35.60
2023-03-22T05:00:23.411Z,35.70
2023-03-22T05:02:57.962Z,35.70
2023-03-22T05:05:25.803Z,35.80
2023-03-22T05:07:53.344Z,35.70
2023-03-22T05:10:23.274Z,35.90
2023-03-22T05:12:50.906Z,36.10
2023-03-22T05:15:18.478Z,36.10
2023-03-22T05:17:48.125Z,36.10
2023-03-22T05:20:16.016Z,36.30
2023-03-22T05:22:43.655Z,36.20
2023-03-22T05:25:13.613Z,36.40
2023-03-22T05:27:41.419Z,36.50
2023-03-22T05:30:09.110Z,36.50
2023-03-22T05:32:39.108Z,36.50
2023-03-22T05:35:06.789Z,36.50
2023-03-22T05:37:34.502Z,36.50
2023-03-22T05:40:04.587Z,36.60
2023-03-22T05:42:32.252Z,36.90
2023-03-22T05:44:59.829Z,36.80
2023-03-22T05:47:29.694Z,36.90
2023-03-22T05:49:57.456Z,37.00
2023-03-22T05:52:25.033Z,37.00
2023-03-22T05:54:55.268Z,36.90
2023-03-22T05:57:22.881Z,37.00
2023-03-22T05:59:50.385Z,37.30
2023-03-22T06:02:20.691Z,37.20
2023-03-22T06:04:48.472Z,37.00
2023-03-22T06:07:16.065Z,37.00
2023-03-22T06:09:43.948Z,37.10
2023-03-22T06:12:11.597Z,37.00
2023-03-22T06:14:39.111Z,36.90
2023-03-22T06:17:08.476Z,37.10
2023-03-22T06:19:36.238Z,37.30
2023-03-22T06:22:05.272Z,37.60
2023-03-22T06:24:35.657Z,37.70
2023-03-22T06:27:04.064Z,37.70
2023-03-22T06:29:31.672Z,37.70
2023-03-22T06:32:01.647Z,37.60
2023-03-22T06:34:29.271Z,37.60
2023-03-22T06:36:56.769Z,37.40
2023-03-22T06:39:26.645Z,37.40
2023-03-22T06:41:54.370Z,37.50
2023-03-22T06:44:21.947Z,37.50
2023-03-22T06:46:49.934Z,37.60
2023-03-22T06:49:17.610Z,37.80
2023-03-22T06:51:45.221Z,37.50
2023-03-22T06:54:15.319Z,37.20
2023-03-22T06:56:42.910Z,37.00
2023-03-22T06:59:10.490Z,37.10
2023-03-22T07:01:40.561Z,37.30
2023-03-22T07:04:08.542Z,37.70
2023-03-22T07:06:36.167Z,37.40
2023-03-22T07:09:05.556Z,37.30
2023-03-22T07:11:36.288Z,37.30
2023-03-22T07:14:03.800Z,37.20
2023-03-22T07:16:31.593Z,37.10
2023-03-22T07:18:59.412Z,36.90
2023-03-22T07:21:27.100Z,36.70
2023-03-22T07:23:55.068Z,36.80
2023-03-22T07:26:22.794Z,37.50
2023-03-22T07:28:50.386Z,37.60
2023-03-22T07:31:18.008Z,37.60
2023-03-22T07:33:45.692Z,37.60
2023-03-22T07:36:13.243Z,37.70
2023-03-22T07:38:43.383Z,37.70
2023-03-22T07:41:11.084Z,37.80
2023-03-22T07:43:52.440Z,37.70
2023-03-22T07:46:22.255Z,37.60
2023-03-22T07:48:49.882Z,37.80
2023-03-22T07:51:17.444Z,37.80
2023-03-22T07:53:47.587Z,37.80
2023-03-22T07:56:20.551Z,37.80
2023-03-22T07:58:51.517Z,37.80
2023-03-22T08:01:23.461Z,37.80
2023-03-22T08:03:51.227Z,37.80
2023-03-22T08:06:21.899Z,37.80
2023-03-22T08:08:49.637Z,38.00
2023-03-22T08:11:17.385Z,37.80
2023-03-22T08:13:45.360Z,37.80
2023-03-22T08:16:13.099Z,37.90
2023-03-22T08:18:42.144Z,37.80
2023-03-22T08:21:11.272Z,38.00
2023-03-22T08:23:42.151Z,37.90
2023-03-22T08:26:11.113Z,38.00
2023-03-22T08:28:41.225Z,37.90
2023-03-22T08:31:14.034Z,37.80
2023-03-22T08:33:43.435Z,37.80
2023-03-22T08:36:11.373Z,37.80
2023-03-22T08:38:39.147Z,37.70
2023-03-22T08:41:09.661Z,37.70
2023-03-22T08:43:37.863Z,37.60
2023-03-22T08:46:05.533Z,37.60
2023-03-22T08:48:35.798Z,37.60
2023-03-22T08:51:03.562Z,37.50
2023-03-22T08:53:32.368Z,37.40
2023-03-22T08:56:00.442Z,37.30
2023-03-22T08:58:27.999Z,37.20
2023-03-22T09:00:56.333Z,37.10
2023-03-22T09:03:24.381Z,37.20
2023-03-22T09:05:52.011Z,37.10
2023-03-22T09:08:20.064Z,37.10
2023-03-22T09:10:50.359Z,37.10
2023-03-22T09:13:18.067Z,37.10
2023-03-22T09:15:46.030Z,37.00
2023-03-22T09:18:16.047Z,37.00
2023-03-22T09:20:43.720Z,36.90
2023-03-22T09:23:11.915Z,37.00
2023-03-22T09:25:41.986Z,36.90
2023-03-22T09:28:09.694Z,36.90
2023-03-22T09:30:37.362Z,36.90
2023-03-22T09:33:07.349Z,36.60
2023-03-22T09:35:35.021Z,36.40
2023-03-22T09:38:02.683Z,36.30
2023-03-22T09:40:32.808Z,36.30
2023-03-22T09:43:00.372Z,36.30
2023-03-22T09:45:28.316Z,36.30
2023-03-22T09:47:58.819Z,36.30
2023-03-22T09:50:26.561Z,36.30
2023-03-22T09:52:54.409Z,36.30
2023-03-22T09:55:27.705Z,36.30
2023-03-22T09:57:55.381Z,36.50
2023-03-22T10:00:23.030Z,36.60
2023-03-22T10:02:51.907Z,36.50
2023-03-22T10:05:19.676Z,36.50
2023-03-22T10:07:47.246Z,36.50
2023-03-22T10:10:17.316Z,36.40
2023-03-22T10:12:44.944Z,36.30
2023-03-22T10:15:12.547Z,36.30
2023-03-22T10:17:42.512Z,36.20
2023-03-22T10:20:10.307Z,36.00
2023-03-22T10:22:37.882Z,36.00
2023-03-22T10:25:07.646Z,36.00
2023-03-22T10:27:35.403Z,36.00
2023-03-22T10:30:02.992Z,35.90
2023-03-22T10:32:32.916Z,35.80
2023-03-22T10:35:00.830Z,35.80
2023-03-22T10:37:28.441Z,35.90
2023-03-22T10:39:58.864Z,35.70
2023-03-22T10:42:26.496Z,35.70
2023-03-22T10:44:54.152Z,35.70
2023-03-22T10:47:25.129Z,35.70
2023-03-22T10:49:55.285Z,35.60
2023-03-22T10:52:23.062Z,35.50
2023-03-22T10:54:53.267Z,35.50
2023-03-22T10:57:21.105Z,35.50
2023-03-22T10:59:48.812Z,35.40
2023-03-22T11:02:17.042Z,35.40
2023-03-22T11:04:44.782Z,35.40
2023-03-22T11:07:12.388Z,35.30
2023-03-22T11:09:40.699Z,35.30
2023-03-22T11:12:08.350Z,35.20
2023-03-22T11:14:36.115Z,35.20
2023-03-22T11:17:06.438Z,35.10
2023-03-22T11:19:34.313Z,35.00
2023-03-22T11:22:01.866Z,34.90
2023-03-22T11:24:31.958Z,34.80
2023-03-22T11:26:59.875Z,34.80
2023-03-22T11:29:27.466Z,34.80
2023-03-22T11:31:56.103Z,34.70
2023-03-22T11:34:24.071Z,34.60
2023-03-22T11:36:51.672Z,34.60
2023-03-22T11:39:21.734Z,34.50
2023-03-22T11:41:49.397Z,34.50
2023-03-22T11:44:17.010Z,34.50
2023-03-22T11:46:47.006Z,34.40
2023-03-22T11:49:15.008Z,34.30
2023-03-22T11:51:42.546Z,34.40
2023-03-22T11:54:12.524Z,34.30
2023-03-22T11:56:40.296Z,34.30
2023-03-22T11:59:07.889Z,34.30
2023-03-22T12:01:37.862Z,34.20
2023-03-22T12:04:09.482Z,34.20
2023-03-22T12:06:37.579Z,34.30
2023-03-22T12:09:05.631Z,34.30
2023-03-22T12:11:33.338Z,34.20
2023-03-22T12:14:00.934Z,34.20
2023-03-22T12:16:29.029Z,34.20
2023-03-22T12:18:56.703Z,34.10
2023-03-22T12:21:24.416Z,34.00
2023-03-22T12:23:52.281Z,34.00
2023-03-22T12:26:20.054Z,34.00
2023-03-22T12:28:47.690Z,34.00
2023-03-22T12:31:15.608Z,33.90
2023-03-22T12:33:43.358Z,33.90
2023-03-22T12:36:11.251Z,33.90
2023-03-22T12:38:39.086Z,33.80
2023-03-22T12:41:06.793Z,33.80
2023-03-22T12:43:34.766Z,33.80
2023-03-22T12:46:07.458Z,33.70
2023-03-22T12:48:36.455Z,33.70
2023-03-22T12:51:04.292Z,33.70
2023-03-22T12:53:33.024Z,33.70
2023-03-22T12:56:01.032Z,33.70
2023-03-22T12:58:28.724Z,33.70
2023-03-22T13:00:58.589Z,33.60
2023-03-22T13:03:26.550Z,33.60
2023-03-22T13:05:54.230Z,33.60
2023-03-22T13:08:24.360Z,33.60
2023-03-22T13:10:52.208Z,33.50
2023-03-22T13:13:19.806Z,33.60
2023-03-22T13:15:51.571Z,33.60
2023-03-22T13:18:19.339Z,33.60
2023-03-22T13:20:47.076Z,33.60
2023-03-22T13:23:15.862Z,33.60
2023-03-22T13:25:43.558Z,33.60
2023-03-22T13:28:11.177Z,33.50
2023-03-22T13:30:41.436Z,33.60
2023-03-22T13:33:09.301Z,33.50
2023-03-22T13:35:37.022Z,33.50
2023-03-22T13:38:07.069Z,33.50
2023-03-22T13:40:34.758Z,33.60
2023-03-22T13:43:02.361Z,33.50
2023-03-22T13:45:30.467Z,33.50
2023-03-22T13:47:58.317Z,33.50
2023-03-22T13:50:25.913Z,33.50
2023-03-22T13:52:56.132Z,33.40
2023-03-22T13:55:23.869Z,33.40
2023-03-22T13:57:51.467Z,33.30
2023-03-22T14:00:21.189Z,33.30
2023-03-22T14:02:49.015Z,33.20
2023-03-22T14:05:16.689Z,33.20
2023-03-22T14:07:47.469Z,33.20
2023-03-22T14:10:15.607Z,33.10
2023-03-22T14:12:43.277Z,33.20
2023-03-22T14:15:13.492Z,33.10
2023-03-22T14:17:41.388Z,33.10
2023-03-22T14:20:09.039Z,33.10
